Time;durP1;ratioP1;P1;durP2;ratioP2;P2;SDS_P1;SDS_P2;PMS_P1;PMS_P2;Temp;Humidity;BMP_temperature;BMP_pressure;BME280_temperature;BME280_humidity;BME280_pressure;Samples;Min_cycle;Max_cycle;Signal;HPM_P1;HPM_P2
2021/10/31 00:00:05;;;;;;;21.48;17.77;;;14.20;91.10;;;;;;5093909;28;20235;-65
2021/10/31 00:02:32;;;;;;;21.10;18.98;;;14.20;91.20;;;;;;5095673;28;20223;-66
2021/10/31 00:04:59;;;;;;;19.40;17.40;;;14.20;91.20;;;;;;5095253;28;20242;-66
2021/10/31 00:07:26;;;;;;;21.83;19.47;;;14.10;91.20;;;;;;5095324;28;20219;-66
2021/10/31 00:09:52;;;;;;;19.40;17.47;;;14.10;91.30;;;;;;5094938;28;20480;-66
2021/10/31 00:12:21;;;;;;;22.38;19.85;;;14.00;91.40;;;;;;5095525;28;20491;-66
2021/10/31 00:14:48;;;;;;;19.75;17.75;;;14.10;91.40;;;;;;5095339;28;20234;-66
2021/10/31 00:17:15;;;;;;;20.95;18.80;;;14.10;91.60;;;;;;5095155;28;20653;-64
2021/10/31 00:19:42;;;;;;;22.43;19.97;;;14.00;91.60;;;;;;5095015;28;20242;-65
2021/10/31 00:22:09;;;;;;;20.35;18.35;;;14.00;91.70;;;;;;5094729;28;20473;-65
2021/10/31 00:24:36;;;;;;;19.83;17.73;;;14.10;91.80;;;;;;5094579;28;20224;-65
2021/10/31 00:27:03;;;;;;;20.57;18.47;;;14.10;91.80;;;;;;5094874;28;20227;-65
2021/10/31 00:29:31;;;;;;;22.77;18.35;;;14.10;91.90;;;;;;5094920;28;20488;-66
2021/10/31 00:31:58;;;;;;;19.73;17.73;;;14.00;91.90;;;;;;5094536;28;20261;-65
2021/10/31 00:34:25;;;;;;;23.27;20.88;;;14.10;92.00;;;;;;5094984;28;20477;-65
2021/10/31 00:36:52;;;;;;;22.25;19.88;;;14.10;92.10;;;;;;5094685;28;20231;-65
2021/10/31 00:39:19;;;;;;;21.90;19.13;;;14.10;92.10;;;;;;5094703;28;20695;-66
2021/10/31 00:41:46;;;;;;;20.92;18.83;;;14.00;92.10;;;;;;5094828;28;20466;-66
2021/10/31 00:44:13;;;;;;;21.00;18.90;;;14.10;92.20;;;;;;5094276;28;20570;-66
2021/10/31 00:46:41;;;;;;;21.43;19.33;;;14.10;92.30;;;;;;5094624;28;20474;-65
2021/10/31 00:49:08;;;;;;;22.33;20.00;;;14.10;92.30;;;;;;5094092;28;20481;-66
2021/10/31 00:51:35;;;;;;;22.10;19.77;;;14.10;92.40;;;;;;5085861;28;20474;-66
2021/10/31 00:54:05;;;;;;;19.98;17.90;;;14.10;92.40;;;;;;5080618;28;20469;-66
2021/10/31 00:56:32;;;;;;;21.30;19.10;;;14.10;92.60;;;;;;5094465;28;20234;-66
2021/10/31 00:59:02;;;;;;;19.67;17.77;;;14.10;92.60;;;;;;5091454;28;20465;-66
2021/10/31 01:01:32;;;;;;;18.00;16.20;;;14.10;92.60;;;;;;5094193;28;20684;-66
2021/10/31 01:04:01;;;;;;;20.03;17.90;;;14.20;92.70;;;;;;5094069;28;20219;-66
2021/10/31 01:07:03;;;;;;;18.80;17.00;;;14.20;92.70;;;;;;5094355;28;20526;-66
2021/10/31 01:09:39;;;;;;;18.20;16.40;;;14.20;92.90;;;;;;5094407;28;20982;-66
2021/10/31 01:12:17;;;;;;;16.10;14.60;;;14.20;92.90;;;;;;5081619;28;20549;-66
2021/10/31 01:15:01;;;;;;;18.43;16.73;;;14.20;92.90;;;;;;5093798;28;20223;-65
2021/10/31 01:17:58;;;;;;;19.15;17.25;;;14.20;93.10;;;;;;5094105;28;20485;-65
2021/10/31 01:20:37;;;;;;;18.97;16.83;;;14.20;93.20;;;;;;5083090;28;20227;-66
2021/10/31 01:23:24;;;;;;;17.70;15.87;;;14.20;93.30;;;;;;5093837;28;20481;-66
2021/10/31 01:26:15;;;;;;;18.23;16.10;;;14.20;93.40;;;;;;5093437;28;21336;-65
2021/10/31 01:28:58;;;;;;;19.20;17.10;;;14.30;93.50;;;;;;5093465;28;20242;-66
2021/10/31 01:31:34;;;;;;;16.35;14.75;;;14.30;93.60;;;;;;5093674;28;20519;-66
2021/10/31 01:34:12;;;;;;;15.90;14.30;;;14.30;93.70;;;;;;5093550;28;20223;-66
2021/10/31 01:36:50;;;;;;;16.27;14.70;;;14.30;93.70;;;;;;5093593;28;20621;-66
2021/10/31 01:39:22;;;;;;;16.57;14.87;;;14.30;93.70;;;;;;5093471;28;20469;-66
2021/10/31 01:41:54;;;;;;;16.97;14.87;;;14.40;93.80;;;;;;5093293;28;20522;-66
2021/10/31 01:44:32;;;;;;;17.17;15.37;;;14.40;93.80;;;;;;5092833;28;20462;-65
2021/10/31 01:47:11;;;;;;;17.93;16.03;;;14.40;93.90;;;;;;5093168;28;20488;-65
2021/10/31 01:49:46;;;;;;;16.70;15.10;;;14.40;93.90;;;;;;5093161;28;20818;-65
2021/10/31 01:52:18;;;;;;;17.03;15.33;;;14.50;94.00;;;;;;5084829;28;20464;-66
2021/10/31 01:54:51;;;;;;;16.70;15.00;;;14.50;94.00;;;;;;5092885;28;20480;-66
2021/10/31 01:57:21;;;;;;;15.97;14.30;;;14.40;94.10;;;;;;5087488;28;20559;-66
2021/10/31 01:59:54;;;;;;;17.90;15.90;;;14.40;94.10;;;;;;5090660;28;20904;-66
2021/10/31 02:02:23;;;;;;;19.77;16.00;;;14.40;94.20;;;;;;5093179;28;20557;-66
2021/10/31 02:04:52;;;;;;;16.88;15.18;;;14.40;94.20;;;;;;5092043;28;20851;-66
2021/10/31 02:07:21;;;;;;;16.93;15.30;;;14.40;94.30;;;;;;5093390;28;20216;-66
2021/10/31 02:09:50;;;;;;;17.35;14.45;;;14.40;94.40;;;;;;5092528;28;20473;-66
2021/10/31 02:12:18;;;;;;;16.92;15.38;;;14.30;94.50;;;;;;5093247;28;20238;-66
2021/10/31 02:14:47;;;;;;;15.90;14.40;;;14.30;94.50;;;;;;5092477;28;20227;-66
2021/10/31 02:17:15;;;;;;;13.87;12.53;;;14.40;94.60;;;;;;5093182;28;20798;-66
2021/10/31 02:19:45;;;;;;;15.20;13.87;;;14.40;94.70;;;;;;5092453;28;20497;-66
2021/10/31 02:22:19;;;;;;;14.23;12.93;;;14.40;94.70;;;;;;5092903;28;20545;-66
2021/10/31 02:24:47;;;;;;;15.03;13.67;;;14.40;94.70;;;;;;5092290;28;20231;-66
2021/10/31 02:27:16;;;;;;;15.38;13.77;;;14.40;94.70;;;;;;5093034;28;20978;-66
2021/10/31 02:29:48;;;;;;;15.20;13.77;;;14.50;94.80;;;;;;5092118;28;20599;-66
2021/10/31 02:32:15;;;;;;;17.00;15.13;;;14.50;94.90;;;;;;5092740;28;20953;-67
2021/10/31 02:34:42;;;;;;;16.87;15.17;;;14.50;94.80;;;;;;5092454;28;20978;-67
2021/10/31 02:37:10;;;;;;;16.05;14.65;;;14.50;94.80;;;;;;5092612;28;20457;-66
2021/10/31 02:39:37;;;;;;;15.63;14.17;;;14.60;94.90;;;;;;5092675;28;20258;-66
2021/10/31 02:42:06;;;;;;;14.60;13.30;;;14.60;94.90;;;;;;5092109;28;20465;-66
2021/10/31 02:44:33;;;;;;;14.70;13.27;;;14.60;94.90;;;;;;5092676;28;20470;-67
2021/10/31 02:47:04;;;;;;;14.73;13.30;;;14.70;94.90;;;;;;5092194;28;20549;-68
2021/10/31 02:49:31;;;;;;;15.73;14.17;;;14.70;94.90;;;;;;5092748;28;20466;-66
2021/10/31 02:52:02;;;;;;;16.60;15.03;;;14.70;94.90;;;;;;5092122;28;20484;-67
2021/10/31 02:54:37;;;;;;;15.90;14.37;;;14.80;95.00;;;;;;5089091;28;20480;-67
2021/10/31 02:57:14;;;;;;;15.60;14.03;;;14.80;95.00;;;;;;5078987;28;20476;-66
2021/10/31 02:59:47;;;;;;;16.27;14.57;;;14.70;94.90;;;;;;5090447;28;20506;-65
2021/10/31 03:02:15;;;;;;;16.63;13.50;;;14.80;95.00;;;;;;5092251;28;21332;-66
2021/10/31 03:04:43;;;;;;;16.23;14.70;;;14.70;95.00;;;;;;5092482;28;20473;-66
2021/10/31 03:07:10;;;;;;;14.77;13.37;;;14.70;95.00;;;;;;5092111;28;20473;-66
2021/10/31 03:09:38;;;;;;;14.83;13.37;;;14.80;95.10;;;;;;5092341;28;20492;-66
2021/10/31 03:12:08;;;;;;;15.70;14.07;;;14.80;95.10;;;;;;5092125;28;20506;-66
2021/10/31 03:14:36;;;;;;;13.07;11.67;;;14.80;95.20;;;;;;5093343;28;20473;-66
2021/10/31 03:17:03;;;;;;;15.03;13.53;;;14.80;95.30;;;;;;5096163;28;20555;-65
2021/10/31 03:19:30;;;;;;;15.17;13.67;;;14.80;95.30;;;;;;5096301;28;20484;-65
2021/10/31 03:21:57;;;;;;;15.07;13.47;;;14.80;95.40;;;;;;5095976;28;20523;-66
2021/10/31 03:24:24;;;;;;;14.90;13.43;;;14.80;95.50;;;;;;5095986;28;20489;-66
2021/10/31 03:26:51;;;;;;;14.17;12.77;;;14.80;95.50;;;;;;5096110;28;20480;-66
2021/10/31 03:29:22;;;;;;;13.90;12.50;;;14.80;95.50;;;;;;5096135;28;20845;-66
2021/10/31 03:31:49;;;;;;;15.17;13.70;;;14.80;95.60;;;;;;5096036;28;20489;-64
2021/10/31 03:34:16;;;;;;;14.83;13.43;;;14.80;95.70;;;;;;5095547;28;20476;-66
2021/10/31 03:36:43;;;;;;;13.87;12.60;;;14.80;95.70;;;;;;5096093;28;20465;-66
2021/10/31 03:39:10;;;;;;;15.90;11.90;;;14.80;95.80;;;;;;5095384;28;20473;-66
2021/10/31 03:41:37;;;;;;;13.33;12.13;;;14.80;95.80;;;;;;5095893;28;20469;-67
2021/10/31 03:44:04;;;;;;;13.63;12.37;;;14.80;95.80;;;;;;5086600;28;20469;-67
2021/10/31 03:46:33;;;;;;;14.63;13.23;;;14.70;95.90;;;;;;5095653;28;20492;-66
2021/10/31 03:49:00;;;;;;;14.07;12.67;;;14.70;96.00;;;;;;5095522;28;20465;-66
2021/10/31 03:51:27;;;;;;;14.10;12.80;;;14.80;96.00;;;;;;5095688;28;20476;-66
2021/10/31 03:53:54;;;;;;;13.90;12.50;;;14.80;96.10;;;;;;5089730;28;20462;-66
2021/10/31 03:56:21;;;;;;;15.97;13.93;;;14.80;96.20;;;;;;5095586;28;20453;-66
2021/10/31 03:58:48;;;;;;;13.00;11.70;;;14.70;96.20;;;;;;5093612;28;20544;-66
2021/10/31 04:01:15;;;;;;;13.10;11.80;;;14.70;96.40;;;;;;5095123;28;20958;-66
2021/10/31 04:03:44;;;;;;;12.50;11.20;;;14.70;96.40;;;;;;5095644;28;20523;-66
2021/10/31 04:06:12;;;;;;;12.73;11.53;;;14.70;96.50;;;;;;5094992;28;20493;-66
2021/10/31 04:08:40;;;;;;;13.57;12.37;;;14.70;96.50;;;;;;5094919;28;20449;-66
2021/10/31 04:11:07;;;;;;;13.43;12.10;;;14.70;96.60;;;;;;5094125;28;20481;-66
2021/10/31 04:13:34;;;;;;;13.87;12.57;;;14.70;96.80;;;;;;5095506;28;20476;-66
2021/10/31 04:16:01;;;;;;;12.80;11.52;;;14.70;96.90;;;;;;5095045;28;20485;-65
2021/10/31 04:18:27;;;;;;;13.67;12.37;;;14.70;97.00;;;;;;5095415;28;20256;-66
2021/10/31 04:20:56;;;;;;;12.50;11.33;;;14.70;97.00;;;;;;5095335;28;20480;-66
2021/10/31 04:23:24;;;;;;;14.07;12.77;;;14.70;97.10;;;;;;5095026;28;20588;-66
2021/10/31 04:25:51;;;;;;;12.53;11.27;;;14.70;97.30;;;;;;5094700;28;20465;-66
2021/10/31 04:28:18;;;;;;;12.50;11.30;;;14.70;97.40;;;;;;5094539;28;20815;-66
2021/10/31 04:30:45;;;;;;;12.67;11.57;;;14.60;97.60;;;;;;5095370;28;20582;-66
2021/10/31 04:33:12;;;;;;;11.83;10.73;;;14.60;97.70;;;;;;5094704;28;20465;-66
2021/10/31 04:35:40;;;;;;;12.93;11.63;;;14.60;97.80;;;;;;5095229;28;20499;-66
2021/10/31 04:38:12;;;;;;;12.37;11.13;;;14.60;97.90;;;;;;5094522;28;20492;-67
2021/10/31 04:40:40;;;;;;;11.35;10.30;;;14.60;98.00;;;;;;5095089;28;20470;-66
2021/10/31 04:43:11;;;;;;;11.83;10.83;;;14.70;98.10;;;;;;5094311;28;20247;-65
2021/10/31 04:45:39;;;;;;;13.30;12.03;;;14.70;98.20;;;;;;5094940;28;20511;-65
2021/10/31 04:48:08;;;;;;;11.37;10.37;;;14.70;98.30;;;;;;5094376;28;20465;-65
2021/10/31 04:50:35;;;;;;;11.60;10.40;;;14.70;98.40;;;;;;5094644;28;20477;-65
2021/10/31 04:53:06;;;;;;;13.00;11.70;;;14.70;98.40;;;;;;5094382;28;20776;-66
2021/10/31 04:55:35;;;;;;;12.83;11.60;;;14.70;98.50;;;;;;5094708;28;20457;-66
2021/10/31 04:58:02;;;;;;;10.90;9.90;;;14.70;98.50;;;;;;5094178;28;20469;-66
2021/10/31 05:00:29;;;;;;;13.43;10.70;;;14.70;98.60;;;;;;5094492;28;20477;-65
2021/10/31 05:02:57;;;;;;;11.43;9.80;;;14.70;98.60;;;;;;5094637;28;20466;-66
2021/10/31 05:05:24;;;;;;;12.10;11.00;;;14.70;98.60;;;;;;5094168;28;20507;-65
2021/10/31 05:07:55;;;;;;;13.00;9.83;;;14.70;98.60;;;;;;5094516;28;20465;-66
2021/10/31 05:10:22;;;;;;;11.70;10.60;;;14.80;98.60;;;;;;5094026;28;20540;-65
2021/10/31 05:12:50;;;;;;;12.17;10.97;;;14.80;98.60;;;;;;5094325;28;20514;-65
2021/10/31 05:15:17;;;;;;;13.20;12.00;;;14.80;98.60;;;;;;5093765;28;20470;-67
2021/10/31 05:17:45;;;;;;;13.17;12.00;;;14.80;98.70;;;;;;5094490;28;20468;-66
2021/10/31 05:20:13;;;;;;;15.13;13.40;;;14.80;98.70;;;;;;5093845;28;20473;-66
2021/10/31 05:22:41;;;;;;;13.63;12.23;;;14.80;98.70;;;;;;5094068;28;21042;-66
2021/10/31 05:25:10;;;;;;;15.00;13.23;;;14.80;98.70;;;;;;5093637;28;20476;-66
2021/10/31 05:27:37;;;;;;;15.27;13.70;;;14.80;98.80;;;;;;5094083;28;20488;-66
2021/10/31 05:30:09;;;;;;;15.47;14.07;;;14.80;98.80;;;;;;5093697;28;20231;-67
2021/10/31 05:32:36;;;;;;;12.07;10.80;;;14.80;98.80;;;;;;5094202;28;20834;-66
2021/10/31 05:35:05;;;;;;;11.53;10.33;;;14.80;98.80;;;;;;5093774;28;20696;-66
2021/10/31 05:37:34;;;;;;;15.00;10.53;;;14.90;98.80;;;;;;5093700;28;20908;-67
2021/10/31 05:40:02;;;;;;;12.87;11.50;;;14.90;98.80;;;;;;5093774;28;20465;-67
2021/10/31 05:42:29;;;;;;;11.77;10.70;;;14.90;98.70;;;;;;5088545;28;20478;-66
2021/10/31 05:44:56;;;;;;;11.30;10.20;;;14.90;98.80;;;;;;5089973;28;20469;-66
2021/10/31 05:47:25;;;;;;;10.13;9.13;;;14.90;98.80;;;;;;5093139;28;20457;-65
2021/10/31 05:49:52;;;;;;;10.50;9.50;;;15.00;98.80;;;;;;5093625;28;20560;-65
2021/10/31 05:52:19;;;;;;;11.23;10.30;;;15.00;98.70;;;;;;5093076;28;20461;-66
2021/10/31 05:54:46;;;;;;;12.07;10.90;;;15.10;98.70;;;;;;5093630;28;20465;-66
2021/10/31 05:57:13;;;;;;;10.77;9.77;;;15.10;98.60;;;;;;5093216;28;20477;-66
2021/10/31 05:59:40;;;;;;;16.20;11.63;;;15.10;98.60;;;;;;5077273;28;20473;-66
2021/10/31 06:02:09;;;;;;;11.40;10.20;;;15.10;98.60;;;;;;5073197;28;20462;-66
2021/10/31 06:04:39;;;;;;;11.80;10.70;;;15.10;98.60;;;;;;5072938;28;21117;-66
2021/10/31 06:07:06;;;;;;;11.07;10.03;;;15.00;98.50;;;;;;5073193;28;20544;-66
2021/10/31 06:09:34;;;;;;;16.20;10.80;;;15.10;98.50;;;;;;5072693;28;20804;-66
2021/10/31 06:12:01;;;;;;;11.97;10.87;;;15.00;98.40;;;;;;5073240;28;20975;-66
2021/10/31 06:14:28;;;;;;;13.80;11.07;;;15.10;98.50;;;;;;5072752;28;20466;-66
2021/10/31 06:16:55;;;;;;;12.97;10.20;;;15.00;98.40;;;;;;5073054;28;20458;-66
2021/10/31 06:19:22;;;;;;;11.57;10.57;;;15.00;98.30;;;;;;5072376;28;21135;-66
2021/10/31 06:21:51;;;;;;;11.97;10.83;;;15.00;98.40;;;;;;5073127;28;20972;-66
2021/10/31 06:24:17;;;;;;;13.67;12.37;;;15.00;98.40;;;;;;5072225;28;20469;-66
2021/10/31 06:26:44;;;;;;;12.50;11.30;;;15.00;98.30;;;;;;5072855;28;20968;-66
2021/10/31 06:29:13;;;;;;;13.67;12.27;;;14.90;98.30;;;;;;5072848;28;20466;-66
2021/10/31 06:31:40;;;;;;;13.57;12.17;;;14.90;98.40;;;;;;5083906;28;20476;-66
2021/10/31 06:34:08;;;;;;;15.57;14.07;;;14.90;98.40;;;;;;5092885;28;20470;-66
2021/10/31 06:36:35;;;;;;;14.40;13.00;;;14.90;98.40;;;;;;5092656;28;20478;-66
2021/10/31 06:39:05;;;;;;;15.60;13.90;;;14.90;98.40;;;;;;5092707;28;20481;-66
2021/10/31 06:41:33;;;;;;;18.07;16.23;;;14.80;98.30;;;;;;5092460;28;20461;-66
2021/10/31 06:44:00;;;;;;;14.40;13.00;;;14.80;98.30;;;;;;5092711;28;20469;-66
2021/10/31 06:46:27;;;;;;;14.57;13.17;;;14.80;98.20;;;;;;5092186;28;20473;-66
2021/10/31 06:48:54;;;;;;;15.00;13.50;;;14.80;98.30;;;;;;5092413;28;20477;-66
2021/10/31 06:51:21;;;;;;;14.27;12.77;;;14.80;98.30;;;;;;5092269;28;20464;-66
2021/10/31 06:53:49;;;;;;;14.60;13.17;;;14.80;98.40;;;;;;5092723;28;20836;-65
2021/10/31 06:56:17;;;;;;;15.80;14.20;;;14.80;98.40;;;;;;5092792;28;20461;-65
2021/10/31 06:58:45;;;;;;;16.07;14.43;;;14.80;98.30;;;;;;5092384;28;20450;-66
2021/10/31 07:01:12;;;;;;;17.20;15.60;;;14.80;98.30;;;;;;5092672;28;20473;-66
2021/10/31 07:03:41;;;;;;;16.20;14.70;;;14.80;98.30;;;;;;5092173;28;20478;-66
2021/10/31 07:06:09;;;;;;;16.77;15.10;;;14.80;98.30;;;;;;5092902;28;20469;-66
2021/10/31 07:08:36;;;;;;;16.83;15.23;;;14.80;98.30;;;;;;5091994;28;20457;-66
2021/10/31 07:11:03;;;;;;;14.23;12.80;;;14.80;98.30;;;;;;5092681;28;20465;-66
2021/10/31 07:13:31;;;;;;;16.00;14.50;;;14.80;98.30;;;;;;5092280;28;20461;-66
2021/10/31 07:15:58;;;;;;;16.93;14.80;;;14.80;98.30;;;;;;5092589;28;20469;-66
2021/10/31 07:18:25;;;;;;;16.70;15.00;;;14.80;98.30;;;;;;5092060;28;20465;-66
2021/10/31 07:20:52;;;;;;;15.30;13.80;;;14.90;98.40;;;;;;5092505;28;20472;-66
2021/10/31 07:23:19;;;;;;;15.73;14.17;;;15.00;98.70;;;;;;5092267;28;20457;-66
2021/10/31 07:25:46;;;;;;;18.10;14.30;;;15.10;98.40;;;;;;5092056;28;20476;-66
2021/10/31 07:28:13;;;;;;;15.77;14.17;;;15.10;98.40;;;;;;5092481;28;20868;-66
2021/10/31 07:30:41;;;;;;;16.83;15.23;;;15.20;98.40;;;;;;5091887;28;20465;-66
2021/10/31 07:33:08;;;;;;;17.50;15.57;;;15.20;98.40;;;;;;5092548;28;20458;-66
2021/10/31 07:35:35;;;;;;;16.87;15.17;;;15.20;98.30;;;;;;5091967;28;20838;-66
2021/10/31 07:38:03;;;;;;;16.40;14.80;;;15.20;98.40;;;;;;5092260;28;20465;-66
2021/10/31 07:40:30;;;;;;;17.33;15.57;;;15.30;98.40;;;;;;5091852;28;20546;-66
2021/10/31 07:42:59;;;;;;;16.90;15.30;;;15.30;98.40;;;;;;5092092;28;20470;-67
2021/10/31 07:45:26;;;;;;;14.63;13.23;;;15.30;98.40;;;;;;5071638;28;20589;-67
2021/10/31 07:47:55;;;;;;;14.30;12.80;;;15.40;98.50;;;;;;5086113;28;20457;-66
2021/10/31 07:50:22;;;;;;;14.90;13.43;;;15.40;98.60;;;;;;5092238;28;20473;-66
2021/10/31 07:52:49;;;;;;;16.50;14.13;;;15.50;98.60;;;;;;5092112;28;21307;-66
2021/10/31 07:55:18;;;;;;;14.70;13.03;;;15.50;98.80;;;;;;5092231;28;20480;-66
2021/10/31 07:57:48;;;;;;;14.90;13.40;;;15.60;98.90;;;;;;5091673;28;20524;-65
2021/10/31 08:00:16;;;;;;;15.77;14.27;;;15.60;98.90;;;;;;5071787;28;20486;-65
2021/10/31 08:02:42;;;;;;;14.87;13.37;;;15.70;99.00;;;;;;5074064;28;20466;-66
2021/10/31 08:05:11;;;;;;;16.00;14.30;;;15.70;99.00;;;;;;5075483;28;20783;-66
2021/10/31 08:07:39;;;;;;;14.13;12.80;;;15.70;99.20;;;;;;5074894;28;20545;-66
2021/10/31 08:10:07;;;;;;;15.37;13.83;;;15.70;99.10;;;;;;5075377;28;20498;-66
2021/10/31 08:12:35;;;;;;;14.70;13.40;;;15.80;99.20;;;;;;5074700;28;21038;-66
2021/10/31 08:15:02;;;;;;;19.10;17.20;;;15.80;99.20;;;;;;5075252;28;20972;-65
2021/10/31 08:17:29;;;;;;;16.83;15.23;;;15.80;99.30;;;;;;5075054;28;20470;-65
2021/10/31 08:19:56;;;;;;;18.40;16.47;;;15.80;99.30;;;;;;5075009;28;20561;-65
2021/10/31 08:22:25;;;;;;;15.13;13.83;;;15.90;99.30;;;;;;5075043;28;20470;-66
2021/10/31 08:24:52;;;;;;;14.37;13.00;;;15.90;99.30;;;;;;5074801;28;20469;-65
2021/10/31 08:27:19;;;;;;;15.60;14.20;;;15.90;99.40;;;;;;5075023;28;20466;-66
2021/10/31 08:29:47;;;;;;;14.87;13.40;;;15.90;99.40;;;;;;5074578;28;20849;-67
2021/10/31 08:32:14;;;;;;;14.30;12.90;;;16.00;99.40;;;;;;5091048;28;20862;-66
2021/10/31 08:34:41;;;;;;;14.13;11.77;;;16.10;99.40;;;;;;5094579;28;20473;-66
2021/10/31 08:37:08;;;;;;;12.93;11.70;;;16.10;99.30;;;;;;5095064;28;20469;-66
2021/10/31 08:39:36;;;;;;;14.17;12.73;;;16.20;99.40;;;;;;5094471;28;20470;-66
2021/10/31 08:42:04;;;;;;;11.10;10.10;;;16.20;99.40;;;;;;5094844;28;20469;-66
2021/10/31 08:44:31;;;;;;;13.60;12.30;;;16.30;99.40;;;;;;5094398;28;20821;-66
2021/10/31 08:46:58;;;;;;;14.33;12.70;;;16.30;99.40;;;;;;5094673;28;20472;-66
2021/10/31 08:49:24;;;;;;;13.00;11.67;;;16.30;99.40;;;;;;5094594;28;20476;-66
2021/10/31 08:51:51;;;;;;;14.60;12.40;;;16.30;99.50;;;;;;5094367;28;20465;-66
2021/10/31 08:54:19;;;;;;;12.43;11.23;;;16.40;99.50;;;;;;5094724;28;20479;-66
2021/10/31 08:56:47;;;;;;;13.00;11.73;;;16.40;99.50;;;;;;5094383;28;20917;-66
2021/10/31 08:59:14;;;;;;;13.03;11.67;;;16.50;99.50;;;;;;5094525;28;20465;-66
2021/10/31 09:01:41;;;;;;;23.93;20.17;;;16.50;99.40;;;;;;5094034;28;20473;-66
2021/10/31 09:04:08;;;;;;;20.53;18.43;;;16.60;99.40;;;;;;5094503;28;20796;-66
2021/10/31 09:06:35;;;;;;;16.30;14.80;;;16.60;99.30;;;;;;5094258;28;20959;-67
2021/10/31 09:09:02;;;;;;;18.70;15.17;;;16.60;99.20;;;;;;5094376;28;20530;-66
2021/10/31 09:11:29;;;;;;;16.30;14.70;;;16.60;99.20;;;;;;5094177;28;20469;-64
2021/10/31 09:13:58;;;;;;;14.80;13.40;;;16.60;99.20;;;;;;5093711;28;20449;-66
2021/10/31 09:16:26;;;;;;;14.20;12.80;;;16.70;99.20;;;;;;5094158;28;20461;-66
2021/10/31 09:18:53;;;;;;;16.73;15.07;;;16.70;99.20;;;;;;5093763;28;20576;-66
2021/10/31 09:21:23;;;;;;;15.37;13.87;;;16.70;99.10;;;;;;5094350;28;20512;-66
2021/10/31 09:23:50;;;;;;;13.57;12.37;;;16.70;99.10;;;;;;5093446;28;20531;-65
2021/10/31 09:26:19;;;;;;;13.60;12.30;;;16.70;99.10;;;;;;5094014;28;20496;-66
2021/10/31 09:28:46;;;;;;;18.53;15.23;;;16.70;99.00;;;;;;5093676;28;20471;-66
2021/10/31 09:31:15;;;;;;;19.90;17.90;;;16.70;99.00;;;;;;5086251;28;20474;-65
2021/10/31 09:33:43;;;;;;;20.40;18.40;;;16.80;99.00;;;;;;5072954;28;20473;-66
2021/10/31 09:36:11;;;;;;;19.33;17.63;;;16.80;99.00;;;;;;5073663;28;20466;-66
2021/10/31 09:38:38;;;;;;;21.20;19.10;;;16.80;99.10;;;;;;5072774;28;20554;-67
2021/10/31 09:41:05;;;;;;;19.87;17.70;;;16.80;99.10;;;;;;5073550;28;20462;-66
2021/10/31 09:43:42;;;;;;;16.47;14.97;;;16.90;99.10;;;;;;5086873;28;20468;-66
2021/10/31 09:46:09;;;;;;;15.57;14.10;;;16.90;99.10;;;;;;5094220;28;20532;-65
2021/10/31 09:48:37;;;;;;;17.60;15.70;;;16.90;99.10;;;;;;5093060;28;20594;-65
2021/10/31 09:51:05;;;;;;;17.53;15.77;;;17.00;99.20;;;;;;5093839;28;20827;-66
2021/10/31 09:53:32;;;;;;;17.03;14.97;;;17.00;99.10;;;;;;5093220;28;20997;-66
2021/10/31 09:56:00;;;;;;;16.20;14.60;;;17.00;99.10;;;;;;5093437;28;20831;-65
2021/10/31 09:58:33;;;;;;;16.67;15.07;;;17.10;99.10;;;;;;5093152;28;20563;-64
2021/10/31 10:01:06;;;;;;;14.43;13.13;;;17.00;99.00;;;;;;5093738;28;20492;-65
2021/10/31 10:03:36;;;;;;;15.17;13.63;;;17.10;99.00;;;;;;5093117;28;20588;-65
2021/10/31 10:06:22;;;;;;;13.60;12.20;;;17.10;98.90;;;;;;5093209;28;20492;-66
2021/10/31 10:09:05;;;;;;;14.30;13.00;;;17.20;98.90;;;;;;5092904;28;20460;-65
2021/10/31 10:11:34;;;;;;;14.73;13.43;;;17.20;98.80;;;;;;5092956;28;20464;-65
2021/10/31 10:14:10;;;;;;;13.37;12.17;;;17.30;98.80;;;;;;5093308;28;20476;-66
2021/10/31 10:16:37;;;;;;;14.70;13.30;;;17.30;98.80;;;;;;5092760;28;20472;-66
2021/10/31 10:19:15;;;;;;;13.53;12.33;;;17.40;98.80;;;;;;5093200;28;20984;-66
2021/10/31 10:21:43;;;;;;;14.57;13.17;;;17.40;98.80;;;;;;5092803;28;21026;-66
2021/10/31 10:24:12;;;;;;;13.93;12.70;;;17.50;98.90;;;;;;5091965;28;20473;-65
2021/10/31 10:26:42;;;;;;;14.60;13.30;;;17.50;98.90;;;;;;5092684;28;20812;-65
2021/10/31 10:29:15;;;;;;;14.57;13.17;;;17.50;98.80;;;;;;5093024;28;20519;-66
2021/10/31 10:31:42;;;;;;;14.50;13.10;;;17.50;98.70;;;;;;5092847;28;20473;-65
2021/10/31 10:34:11;;;;;;;14.10;12.80;;;17.50;98.60;;;;;;5092895;28;20472;-66
2021/10/31 10:36:40;;;;;;;19.63;14.50;;;17.60;98.70;;;;;;5092537;28;20465;-66
2021/10/31 10:39:11;;;;;;;14.17;12.87;;;17.60;98.50;;;;;;5093034;28;20873;-67
2021/10/31 10:41:40;;;;;;;14.03;12.60;;;17.70;98.50;;;;;;5092473;28;20470;-67
2021/10/31 10:44:22;;;;;;;16.13;14.00;;;17.70;98.40;;;;;;5092707;28;20792;-66
2021/10/31 10:46:51;;;;;;;15.27;13.77;;;17.70;98.80;;;;;;5092392;28;20457;-66
2021/10/31 10:49:20;;;;;;;15.20;13.70;;;17.70;98.40;;;;;;5092988;28;20897;-67
2021/10/31 10:52:06;;;;;;;15.57;14.13;;;17.70;98.40;;;;;;5092403;28;20959;-66
2021/10/31 10:54:36;;;;;;;14.87;13.47;;;17.80;98.50;;;;;;5092268;28;20472;-66
2021/10/31 10:57:05;;;;;;;13.33;12.03;;;17.80;98.50;;;;;;5092925;28;20473;-66
2021/10/31 10:59:33;;;;;;;14.83;13.53;;;17.90;98.50;;;;;;5092322;28;20552;-66
2021/10/31 11:02:11;;;;;;;13.60;12.30;;;17.90;98.50;;;;;;5092630;28;20469;-66
2021/10/31 11:04:38;;;;;;;14.90;12.03;;;18.00;98.60;;;;;;5092263;28;20959;-66
2021/10/31 11:07:05;;;;;;;10.90;9.90;;;18.00;98.60;;;;;;5092660;28;20469;-66
2021/10/31 11:09:42;;;;;;;12.70;11.50;;;18.10;98.70;;;;;;5082287;28;20485;-67
2021/10/31 11:12:27;;;;;;;13.10;11.97;;;18.10;98.70;;;;;;5072443;28;20839;-65
2021/10/31 11:14:56;;;;;;;12.13;11.03;;;18.10;98.70;;;;;;5071729;28;20781;-66
2021/10/31 11:17:23;;;;;;;14.40;13.10;;;18.10;98.60;;;;;;5072445;28;20478;-66
2021/10/31 11:19:51;;;;;;;14.20;12.90;;;18.10;98.60;;;;;;5071915;28;20471;-65
2021/10/31 11:22:19;;;;;;;13.67;12.47;;;18.10;98.80;;;;;;5072332;28;20828;-66
2021/10/31 11:24:49;;;;;;;13.27;11.50;;;18.20;98.80;;;;;;5071406;28;20471;-66
2021/10/31 11:27:18;;;;;;;11.80;10.70;;;18.10;98.80;;;;;;5072166;28;20462;-67
2021/10/31 11:29:47;;;;;;;10.47;9.53;;;18.20;99.00;;;;;;5071809;28;20481;-65
2021/10/31 11:32:16;;;;;;;12.70;11.40;;;18.20;98.90;;;;;;5072114;28;20523;-65
2021/10/31 11:34:46;;;;;;;12.47;11.17;;;18.30;98.90;;;;;;5071869;28;20470;-66
2021/10/31 11:37:14;;;;;;;11.60;10.50;;;18.40;99.00;;;;;;5075390;28;20458;-66
2021/10/31 11:39:43;;;;;;;13.87;10.63;;;18.40;99.00;;;;;;5075531;28;20489;-66
2021/10/31 11:42:13;;;;;;;10.77;9.80;;;18.40;98.90;;;;;;5077976;28;20801;-67
2021/10/31 11:45:05;;;;;;;13.10;10.73;;;18.40;98.80;;;;;;5095617;28;20469;-66
2021/10/31 11:47:32;;;;;;;8.60;7.87;;;18.50;98.80;;;;;;5086396;28;20810;-66
2021/10/31 11:50:05;;;;;;;11.70;10.60;;;18.50;98.80;;;;;;5095825;28;20802;-66
2021/10/31 11:53:03;;;;;;;10.80;9.77;;;18.50;99.20;;;;;;5095676;28;20795;-66
2021/10/31 11:55:33;;;;;;;10.13;9.17;;;18.50;98.90;;;;;;5033770;28;20468;-66
2021/10/31 11:58:49;;;;;;;10.33;9.43;;;18.50;98.80;;;;;;5082804;28;20536;-66
2021/10/31 12:01:19;;;;;;;10.23;9.33;;;18.50;98.80;;;;;;5095925;28;20557;-66
2021/10/31 12:03:48;;;;;;;10.70;9.80;;;18.60;98.90;;;;;;5095780;28;20457;-66
2021/10/31 12:06:50;;;;;;;9.97;9.07;;;18.60;98.90;;;;;;5095716;28;20975;-66
2021/10/31 12:09:25;;;;;;;10.13;9.23;;;18.60;98.90;;;;;;5033130;28;20478;-65
2021/10/31 12:12:25;;;;;;;11.10;10.00;;;18.70;98.90;;;;;;5033444;28;20460;-65
2021/10/31 12:14:59;;;;;;;11.70;10.60;;;18.70;98.90;;;;;;5078847;28;20442;-66
2021/10/31 12:17:48;;;;;;;12.17;10.97;;;18.70;98.90;;;;;;5095438;28;20883;-66
2021/10/31 12:20:35;;;;;;;9.83;8.93;;;18.70;98.90;;;;;;5095398;28;20474;-66
2021/10/31 12:23:18;;;;;;;9.53;8.67;;;18.70;98.90;;;;;;5095033;28;20454;-67
2021/10/31 12:25:46;;;;;;;10.90;10.00;;;18.70;98.80;;;;;;5095090;28;20982;-66
2021/10/31 12:28:39;;;;;;;9.77;8.87;;;18.80;98.80;;;;;;5094926;28;20814;-66
2021/10/31 12:31:25;;;;;;;9.30;8.50;;;18.70;98.80;;;;;;5094981;28;20985;-66
2021/10/31 12:34:06;;;;;;;10.20;9.30;;;18.80;98.70;;;;;;5095186;28;20465;-66
2021/10/31 12:36:34;;;;;;;11.40;10.20;;;18.80;98.70;;;;;;5095163;28;20908;-66
2021/10/31 12:39:21;;;;;;;9.73;8.83;;;18.80;98.80;;;;;;5094787;28;20481;-66
2021/10/31 12:42:11;;;;;;;8.83;8.13;;;18.80;98.80;;;;;;5095199;28;20469;-66